Time;durP1;ratioP1;P1;durP2;ratioP2;P2;SDS_P1;SDS_P2;PMS_P1;PMS_P2;Temp;Humidity;BMP_temperature;BMP_pressure;BME280_temperature;BME280_humidity;BME280_pressure;Samples;Min_cycle;Max_cycle;Signal;HPM_P1;HPM_P2
2022/02/25 00:02:25;;;;;;;1.10;0.70;;;22.20;45.60;;;;;;5016308;28;20514;-74
2022/02/25 00:04:51;;;;;;;1.20;0.63;;;22.20;45.60;;;;;;4999310;28;20406;-73
2022/02/25 00:07:17;;;;;;;1.33;0.70;;;22.20;45.60;;;;;;5014723;28;20046;-70
2022/02/25 00:09:42;;;;;;;1.40;0.80;;;22.10;45.60;;;;;;4996161;28;20038;-74
2022/02/25 00:12:08;;;;;;;1.65;0.80;;;22.10;45.50;;;;;;4998664;28;20311;-70
2022/02/25 00:14:33;;;;;;;1.80;0.85;;;22.10;45.60;;;;;;4998074;28;20040;-70
2022/02/25 00:16:59;;;;;;;1.50;0.90;;;22.10;45.50;;;;;;4999569;28;20109;-70
2022/02/25 00:19:25;;;;;;;0.93;0.70;;;22.10;45.60;;;;;;4997463;28;20515;-73
2022/02/25 00:21:51;;;;;;;1.95;0.70;;;22.10;45.60;;;;;;4999254;28;20038;-73
2022/02/25 00:24:17;;;;;;;0.95;0.63;;;22.10;45.50;;;;;;4995998;28;20095;-71
2022/02/25 00:26:42;;;;;;;0.88;0.60;;;22.10;45.60;;;;;;4997971;28;20026;-72
2022/02/25 00:29:08;;;;;;;1.48;0.80;;;22.10;45.60;;;;;;4995902;28;20042;-71
2022/02/25 00:31:34;;;;;;;2.17;0.90;;;22.10;45.60;;;;;;4994345;28;20040;-73
2022/02/25 00:33:59;;;;;;;1.88;0.80;;;22.10;45.50;;;;;;5001862;28;20049;-72
2022/02/25 00:36:26;;;;;;;1.42;0.60;;;22.10;45.60;;;;;;4999194;28;20080;-72
2022/02/25 00:38:52;;;;;;;1.25;0.70;;;22.10;45.60;;;;;;4994785;28;20054;-73
2022/02/25 00:41:18;;;;;;;0.98;0.57;;;22.10;45.60;;;;;;4997172;28;20036;-71
2022/02/25 00:43:44;;;;;;;1.52;0.88;;;22.00;45.50;;;;;;4997532;28;20034;-72
2022/02/25 00:46:09;;;;;;;1.15;0.70;;;22.00;46.10;;;;;;4998924;28;20591;-71
2022/02/25 00:48:35;;;;;;;0.82;0.70;;;22.00;45.50;;;;;;4998046;28;20061;-70
2022/02/25 00:51:01;;;;;;;0.88;0.68;;;22.00;45.60;;;;;;4997626;28;20120;-70
2022/02/25 00:53:27;;;;;;;1.50;0.70;;;22.00;45.60;;;;;;4995112;28;20042;-73
2022/02/25 00:55:52;;;;;;;1.05;0.70;;;22.00;45.60;;;;;;4998137;28;20026;-70
2022/02/25 00:58:19;;;;;;;0.70;0.50;;;22.00;45.60;;;;;;4996687;28;20030;-70
2022/02/25 01:00:45;;;;;;;1.23;0.60;;;22.00;45.60;;;;;;4996104;28;20125;-71
2022/02/25 01:03:11;;;;;;;1.05;0.75;;;22.00;45.60;;;;;;4997091;28;20148;-70
2022/02/25 01:05:37;;;;;;;1.17;0.70;;;22.00;45.60;;;;;;5013131;28;20030;-73
2022/02/25 01:08:07;;;;;;;0.77;0.60;;;22.00;45.60;;;;;;4996609;28;20034;-73
2022/02/25 01:10:33;;;;;;;;;;;21.90;45.60;;;;;;4996619;28;20057;-74
2022/02/25 01:12:59;;;;;;;0.50;0.50;;;22.00;45.60;;;;;;4996308;28;19918;-72
2022/02/25 01:15:24;;;;;;;1.05;0.73;;;22.00;45.60;;;;;;5001808;28;20537;-73
2022/02/25 01:17:50;;;;;;;1.05;0.70;;;21.90;45.60;;;;;;4997760;28;20120;-70
2022/02/25 01:20:17;;;;;;;1.73;0.70;;;21.90;45.60;;;;;;4995599;28;20038;-73
2022/02/25 01:22:44;;;;;;;1.20;0.68;;;21.90;45.60;;;;;;4997496;28;20030;-71
2022/02/25 01:25:10;;;;;;;1.20;0.60;;;21.90;45.60;;;;;;5011660;28;20026;-73
2022/02/25 01:27:36;;;;;;;1.25;0.68;;;21.90;45.60;;;;;;4996533;28;20617;-73
2022/02/25 01:30:04;;;;;;;1.38;0.70;;;21.90;45.70;;;;;;4995554;28;20262;-72
2022/02/25 01:32:29;;;;;;;0.73;0.50;;;21.90;45.70;;;;;;4995400;28;20534;-73
2022/02/25 01:34:56;;;;;;;1.48;0.70;;;21.80;45.60;;;;;;4996771;28;20132;-70
2022/02/25 01:37:22;;;;;;;0.93;0.65;;;21.80;45.70;;;;;;4995314;28;20089;-71
2022/02/25 01:39:47;;;;;;;0.95;0.60;;;21.80;45.70;;;;;;4992462;28;20457;-72
2022/02/25 01:42:13;;;;;;;0.73;0.50;;;21.80;45.70;;;;;;4994599;28;20034;-73
2022/02/25 01:44:40;;;;;;;0.98;0.70;;;21.80;45.70;;;;;;4996330;28;20271;-70
2022/02/25 01:47:07;;;;;;;0.90;0.60;;;21.80;45.70;;;;;;4997416;28;20034;-72
2022/02/25 01:49:33;;;;;;;0.60;0.60;;;21.80;45.70;;;;;;4995717;28;20125;-72
2022/02/25 01:52:12;;;;;;;1.23;0.60;;;21.80;45.70;;;;;;4997051;28;20546;-73
2022/02/25 01:54:38;;;;;;;;;;;21.80;45.70;;;;;;4994478;28;20343;-70
2022/02/25 01:57:05;;;;;;;1.00;0.65;;;21.80;45.70;;;;;;4994472;28;19913;-69
2022/02/25 01:59:31;;;;;;;1.27;0.60;;;21.80;45.70;;;;;;4994799;28;20057;-71
2022/02/25 02:01:58;;;;;;;0.50;0.50;;;21.80;45.70;;;;;;4996681;28;20048;-70
2022/02/25 02:04:25;;;;;;;0.93;0.60;;;21.70;45.70;;;;;;4996565;28;20041;-70
2022/02/25 02:06:57;;;;;;;1.23;0.50;;;21.80;45.70;;;;;;4997076;28;20086;-71
2022/02/25 02:09:23;;;;;;;0.75;0.50;;;21.70;45.70;;;;;;4993495;28;20018;-71
2022/02/25 02:11:51;;;;;;;0.98;0.52;;;21.70;46.20;;;;;;5010557;28;20035;-70
2022/02/25 02:14:20;;;;;;;1.43;0.70;;;21.70;45.70;;;;;;4996349;28;20028;-71
2022/02/25 02:16:48;;;;;;;1.42;0.70;;;21.70;45.70;;;;;;4998236;28;20424;-70
2022/02/25 02:19:14;;;;;;;1.05;0.55;;;21.70;45.70;;;;;;4994918;28;20037;-73
2022/02/25 02:21:50;;;;;;;0.68;0.60;;;21.70;45.70;;;;;;4997452;28;20109;-70
2022/02/25 02:24:16;;;;;;;0.80;0.55;;;21.70;45.70;;;;;;4993920;28;20106;-70
2022/02/25 02:26:43;;;;;;;0.70;0.50;;;21.70;45.70;;;;;;4996478;28;20098;-72
2022/02/25 02:29:10;;;;;;;0.60;0.40;;;21.70;45.70;;;;;;5010008;28;20422;-73
2022/02/25 02:31:36;;;;;;;0.90;0.60;;;21.70;45.70;;;;;;4996213;28;20056;-70
2022/02/25 02:34:03;;;;;;;0.98;0.60;;;21.70;45.70;;;;;;4995768;28;20430;-70
2022/02/25 02:36:29;;;;;;;1.02;0.50;;;21.70;45.70;;;;;;4997717;28;20038;-72
2022/02/25 02:38:55;;;;;;;0.75;0.50;;;21.60;45.70;;;;;;4991497;28;20084;-70
2022/02/25 02:41:21;;;;;;;0.50;0.50;;;21.60;45.60;;;;;;4995644;28;20120;-69
2022/02/25 02:43:46;;;;;;;1.13;0.50;;;21.60;45.60;;;;;;4995842;28;20105;-72
2022/02/25 02:46:13;;;;;;;0.52;0.50;;;21.60;45.70;;;;;;4996848;28;20022;-70
2022/02/25 02:48:40;;;;;;;1.00;0.57;;;21.60;45.70;;;;;;5000419;28;20034;-69
2022/02/25 02:51:05;;;;;;;0.88;0.60;;;21.60;45.70;;;;;;5015394;28;20057;-69
2022/02/25 02:53:31;;;;;;;1.13;0.60;;;21.60;45.60;;;;;;5011551;28;20221;-68
2022/02/25 02:55:57;;;;;;;1.40;0.57;;;21.60;45.70;;;;;;5000616;28;20534;-69
2022/02/25 02:58:24;;;;;;;1.10;0.50;;;21.60;45.70;;;;;;4998038;28;20037;-69
2022/02/25 03:00:51;;;;;;;1.00;0.60;;;21.60;45.70;;;;;;4998743;28;20060;-72
2022/02/25 03:03:17;;;;;;;0.70;0.50;;;21.60;45.70;;;;;;4999575;28;20050;-71
2022/02/25 03:05:43;;;;;;;0.57;0.50;;;21.60;45.70;;;;;;4998663;28;20538;-69
2022/02/25 03:08:09;;;;;;;0.85;0.50;;;21.60;45.70;;;;;;4996444;28;20140;-69
2022/02/25 03:10:37;;;;;;;0.70;0.50;;;21.60;45.70;;;;;;4998911;28;20065;-68
2022/02/25 03:13:04;;;;;;;0.77;0.50;;;21.60;45.70;;;;;;4999591;28;20549;-73
2022/02/25 03:15:30;;;;;;;1.08;0.60;;;21.50;45.70;;;;;;5015522;28;20062;-69
2022/02/25 03:17:56;;;;;;;1.05;0.55;;;21.60;45.70;;;;;;5013990;28;20073;-69
2022/02/25 03:20:22;;;;;;;0.52;0.40;;;21.50;46.20;;;;;;4999242;28;20057;-72
2022/02/25 03:22:49;;;;;;;0.88;0.50;;;21.50;45.60;;;;;;4999303;28;20026;-69
2022/02/25 03:25:16;;;;;;;0.57;0.52;;;21.50;45.70;;;;;;4998211;28;20486;-72
2022/02/25 03:27:42;;;;;;;0.70;0.50;;;21.50;45.70;;;;;;4998460;28;20030;-70
2022/02/25 03:30:08;;;;;;;0.70;0.60;;;21.50;45.70;;;;;;4998564;28;20048;-68
2022/02/25 03:32:34;;;;;;;1.00;0.60;;;21.50;45.70;;;;;;4998718;28;20148;-70
2022/02/25 03:35:00;;;;;;;0.55;0.40;;;21.50;45.70;;;;;;4999434;28;20045;-72
2022/02/25 03:37:28;;;;;;;0.70;0.50;;;21.50;45.70;;;;;;5000104;28;20033;-72
2022/02/25 03:39:54;;;;;;;0.95;0.60;;;21.50;45.70;;;;;;4996472;28;20527;-71
2022/02/25 03:42:20;;;;;;;0.60;0.50;;;21.50;45.70;;;;;;4997346;28;20034;-72
2022/02/25 03:44:46;;;;;;;0.73;0.50;;;21.50;45.70;;;;;;4999268;28;20072;-72
2022/02/25 03:47:12;;;;;;;0.50;0.50;;;21.50;45.70;;;;;;4998798;28;20030;-69
2022/02/25 03:49:38;;;;;;;0.50;0.50;;;21.40;45.60;;;;;;4999711;28;20033;-68
2022/02/25 03:52:05;;;;;;;1.02;0.55;;;21.40;45.60;;;;;;4999210;28;20045;-69
2022/02/25 03:54:31;;;;;;;0.60;0.43;;;21.50;45.70;;;;;;4995904;28;20031;-69
2022/02/25 03:56:56;;;;;;;0.50;0.50;;;21.40;45.60;;;;;;5014145;28;20060;-70
2022/02/25 03:59:22;;;;;;;0.93;0.60;;;21.40;45.70;;;;;;4996750;28;20509;-71
2022/02/25 04:01:52;;;;;;;1.05;0.57;;;21.40;45.70;;;;;;4999298;28;20074;-68
2022/02/25 04:04:22;;;;;;;0.60;0.40;;;21.40;45.70;;;;;;5014225;28;20425;-69
2022/02/25 04:06:48;;;;;;;0.60;0.60;;;21.40;45.70;;;;;;5016757;28;20092;-72
2022/02/25 04:09:18;;;;;;;0.40;0.40;;;21.40;45.70;;;;;;4994869;28;20037;-72
2022/02/25 04:11:44;;;;;;;0.43;0.43;;;21.40;45.70;;;;;;4998814;28;20030;-72
2022/02/25 04:14:10;;;;;;;0.65;0.50;;;21.40;45.70;;;;;;4998538;28;20350;-72
2022/02/25 04:16:36;;;;;;;1.30;0.68;;;21.40;45.70;;;;;;4999735;28;20026;-72
2022/02/25 04:19:04;;;;;;;0.60;0.50;;;21.40;45.70;;;;;;4997864;28;20040;-70
2022/02/25 04:21:30;;;;;;;0.45;0.45;;;21.40;45.70;;;;;;4997719;28;20073;-72
2022/02/25 04:23:56;;;;;;;0.75;0.40;;;21.40;45.70;;;;;;4995868;28;20486;-71
2022/02/25 04:26:22;;;;;;;0.60;0.40;;;21.40;45.70;;;;;;4999683;28;20029;-71
2022/02/25 04:28:47;;;;;;;0.98;0.55;;;21.30;45.70;;;;;;5013107;28;20037;-69
2022/02/25 04:31:13;;;;;;;0.57;0.50;;;21.30;45.70;;;;;;4998599;28;20034;-72
2022/02/25 04:33:39;;;;;;;0.95;0.50;;;21.30;45.70;;;;;;5003228;28;20030;-68
2022/02/25 04:36:05;;;;;;;0.70;0.45;;;21.30;45.70;;;;;;4998540;28;20277;-72
2022/02/25 04:38:30;;;;;;;0.50;0.50;;;21.30;45.70;;;;;;5012193;28;20026;-71
2022/02/25 04:41:01;;;;;;;0.47;0.40;;;21.30;45.70;;;;;;4997640;28;20025;-69
2022/02/25 04:43:31;;;;;;;0.70;0.40;;;21.30;45.70;;;;;;5012737;28;20133;-69
2022/02/25 04:45:57;;;;;;;1.25;0.55;;;21.30;45.70;;;;;;4999046;28;20076;-69
2022/02/25 04:48:27;;;;;;;0.55;0.50;;;21.30;45.70;;;;;;4997642;28;20480;-72
2022/02/25 04:50:53;;;;;;;;;;;21.30;45.70;;;;;;5013217;28;20092;-70
2022/02/25 04:53:19;;;;;;;0.40;0.40;;;21.30;45.80;;;;;;4996471;28;19937;-68
2022/02/25 04:55:46;;;;;;;0.40;0.40;;;21.30;45.70;;;;;;4996448;28;20863;-69
2022/02/25 04:58:16;;;;;;;0.50;0.50;;;21.30;45.70;;;;;;4995102;28;20048;-70
2022/02/25 05:00:43;;;;;;;0.60;0.35;;;21.30;45.80;;;;;;4994623;28;20057;-71
2022/02/25 05:03:08;;;;;;;0.80;0.60;;;21.30;45.80;;;;;;5012879;28;20080;-69
2022/02/25 05:05:34;;;;;;;0.55;0.30;;;21.30;45.80;;;;;;4998681;28;20057;-72
2022/02/25 05:08:00;;;;;;;0.85;0.40;;;21.20;45.80;;;;;;4993094;28;20498;-71
2022/02/25 05:10:27;;;;;;;0.50;0.50;;;21.30;45.80;;;;;;4997222;28;20030;-71
2022/02/25 05:12:53;;;;;;;0.47;0.40;;;21.30;45.80;;;;;;4996534;28;20037;-70
2022/02/25 05:20:49;;;;;;;0.50;0.43;;;21.30;45.80;;;;;;4997979;28;20036;-71
2022/02/25 05:23:15;;;;;;;0.30;0.30;;;21.30;45.80;;;;;;4999391;28;20113;-72
2022/02/25 05:25:41;;;;;;;0.55;0.50;;;21.20;45.80;;;;;;4997153;28;20033;-69
2022/02/25 05:28:07;;;;;;;0.30;0.30;;;21.20;45.80;;;;;;4995890;28;20026;-71
2022/02/25 05:30:33;;;;;;;0.40;0.40;;;21.20;45.80;;;;;;5000407;28;20104;-69
2022/02/25 05:32:59;;;;;;;0.60;0.35;;;21.20;45.90;;;;;;4996118;28;20095;-72
2022/02/25 05:35:24;;;;;;;0.55;0.40;;;21.20;45.80;;;;;;4997571;28;20470;-71
2022/02/25 05:37:51;;;;;;;0.98;0.45;;;21.20;45.90;;;;;;4993887;28;20035;-70
2022/02/25 05:40:18;;;;;;;0.55;0.50;;;21.20;45.90;;;;;;4994321;28;20512;-69
2022/02/25 05:42:45;;;;;;;0.70;0.60;;;21.20;45.90;;;;;;4995128;28;20049;-69
2022/02/25 05:45:12;;;;;;;0.77;0.50;;;21.20;45.90;;;;;;4995779;28;20344;-72
2022/02/25 05:47:38;;;;;;;0.70;0.60;;;21.20;45.90;;;;;;4996368;28;20045;-72
2022/02/25 05:50:07;;;;;;;0.43;0.43;;;21.20;46.00;;;;;;4995317;28;20407;-70
2022/02/25 05:52:33;;;;;;;1.42;0.50;;;21.20;46.00;;;;;;4995115;28;20026;-72
2022/02/25 05:54:59;;;;;;;0.77;0.40;;;21.20;46.00;;;;;;4995520;28;20048;-72
2022/02/25 05:57:24;;;;;;;1.25;0.60;;;21.20;46.00;;;;;;4995326;28;20047;-71
2022/02/25 05:59:50;;;;;;;0.60;0.50;;;21.10;46.00;;;;;;4994019;28;20033;-72
2022/02/25 06:02:15;;;;;;;0.60;0.60;;;21.10;46.00;;;;;;4997230;28;20513;-72
2022/02/25 06:04:42;;;;;;;0.45;0.30;;;21.10;46.00;;;;;;4995647;28;20030;-71
2022/02/25 06:07:07;;;;;;;1.27;0.50;;;21.10;46.00;;;;;;4993073;28;20492;-71
2022/02/25 06:09:33;;;;;;;0.73;0.50;;;21.10;46.00;;;;;;4992233;28;20060;-72
2022/02/25 06:11:59;;;;;;;0.82;0.50;;;21.10;46.60;;;;;;5009761;28;20034;-72
2022/02/25 06:14:25;;;;;;;0.73;0.43;;;21.10;46.10;;;;;;4996241;28;20035;-69
2022/02/25 06:16:51;;;;;;;0.93;0.40;;;21.10;46.10;;;;;;4997132;28;20022;-70
2022/02/25 06:19:16;;;;;;;0.85;0.43;;;21.10;46.10;;;;;;4998016;28;20561;-71
2022/02/25 06:21:42;;;;;;;0.40;0.40;;;21.10;46.10;;;;;;4999289;28;20076;-72
2022/02/25 06:24:07;;;;;;;0.88;0.50;;;21.10;46.10;;;;;;5001255;28;20031;-69
2022/02/25 06:26:33;;;;;;;1.00;0.50;;;21.10;46.20;;;;;;5017765;28;20041;-72
2022/02/25 06:28:59;;;;;;;1.70;0.55;;;21.10;46.30;;;;;;5001191;28;20479;-70
2022/02/25 06:31:25;;;;;;;2.05;0.70;;;21.10;46.40;;;;;;5003682;28;20061;-70
2022/02/25 06:33:51;;;;;;;1.98;0.80;;;21.10;46.50;;;;;;5003042;28;20399;-71
2022/02/25 06:36:17;;;;;;;1.85;0.85;;;21.10;46.50;;;;;;5003526;28;20395;-69
2022/02/25 06:38:43;;;;;;;1.05;0.60;;;21.10;46.50;;;;;;4999929;28;20131;-69
2022/02/25 06:41:09;;;;;;;1.40;0.60;;;21.10;46.60;;;;;;5001844;28;20030;-67
2022/02/25 06:43:39;;;;;;;1.85;0.70;;;21.10;46.60;;;;;;5001607;28;20068;-68
2022/02/25 06:46:05;;;;;;;2.45;0.77;;;21.20;47.50;;;;;;5001995;28;20026;-66
2022/02/25 06:48:31;;;;;;;2.53;0.80;;;21.40;47.50;;;;;;5004200;28;20057;-67
2022/02/25 06:50:56;;;;;;;1.52;0.90;;;21.60;47.20;;;;;;5004035;28;20029;-65
2022/02/25 06:53:22;;;;;;;2.03;1.00;;;21.80;46.90;;;;;;5003927;28;20034;-68
2022/02/25 06:55:48;;;;;;;2.13;0.90;;;22.00;46.60;;;;;;5006288;28;20046;-66
2022/02/25 06:58:14;;;;;;;1.48;0.70;;;22.20;46.50;;;;;;5003800;28;20451;-67
2022/02/25 07:00:40;;;;;;;2.28;1.00;;;22.40;46.20;;;;;;5002539;28;20041;-69
2022/02/25 07:03:06;;;;;;;2.40;0.90;;;22.50;45.90;;;;;;5004840;28;20041;-67
2022/02/25 07:05:39;;;;;;;1.70;0.80;;;22.70;45.70;;;;;;5005677;28;20055;-67
2022/02/25 07:08:10;;;;;;;1.00;0.70;;;22.80;45.70;;;;;;5008239;28;20137;-66
2022/02/25 07:10:38;;;;;;;2.58;0.90;;;22.90;45.60;;;;;;5005182;28;20046;-67
2022/02/25 07:13:06;;;;;;;1.20;0.60;;;23.10;45.60;;;;;;5004939;28;20030;-66
2022/02/25 07:15:33;;;;;;;1.35;0.60;;;23.00;44.90;;;;;;5002975;28;20025;-70
2022/02/25 07:17:59;;;;;;;0.70;0.50;;;22.90;45.50;;;;;;5001997;28;20054;-68
2022/02/25 07:20:25;;;;;;;1.23;0.40;;;22.80;45.70;;;;;;5001995;28;20056;-67
2022/02/25 07:22:51;;;;;;;0.77;0.52;;;22.70;45.60;;;;;;5001534;28;20113;-69
2022/02/25 07:25:17;;;;;;;1.42;0.50;;;22.80;46.00;;;;;;5003814;28;20113;-67
2022/02/25 07:27:43;;;;;;;1.00;0.60;;;22.80;45.60;;;;;;5001672;28;20023;-68
2022/02/25 07:30:10;;;;;;;1.27;0.60;;;22.80;45.60;;;;;;5001357;28;20062;-67
2022/02/25 07:32:36;;;;;;;2.05;0.80;;;22.70;45.60;;;;;;5001782;28;20073;-67
2022/02/25 07:35:03;;;;;;;1.00;0.60;;;22.80;45.50;;;;;;4998454;28;20033;-66
2022/02/25 07:37:29;;;;;;;0.95;0.60;;;22.80;45.60;;;;;;4999237;28;20045;-67
2022/02/25 07:39:55;;;;;;;0.77;0.40;;;22.80;45.50;;;;;;4996323;28;20228;-67
2022/02/25 07:42:22;;;;;;;1.33;0.80;;;22.80;45.40;;;;;;4999429;28;20470;-68
2022/02/25 07:44:47;;;;;;;0.90;0.50;;;22.80;45.40;;;;;;4998224;28;20022;-68
2022/02/25 07:47:13;;;;;;;0.80;0.52;;;22.80;45.40;;;;;;5001278;28;20048;-67
2022/02/25 07:49:38;;;;;;;1.10;0.60;;;22.80;45.80;;;;;;5014890;28;20375;-68
2022/02/25 07:52:04;;;;;;;0.70;0.57;;;22.80;46.20;;;;;;4999996;28;20030;-66
2022/02/25 07:54:31;;;;;;;1.05;0.60;;;22.90;46.10;;;;;;4996678;28;20030;-69
2022/02/25 07:56:58;;;;;;;1.02;0.50;;;22.90;46.10;;;;;;4998529;28;20056;-64
2022/02/25 07:59:23;;;;;;;1.23;0.60;;;23.00;46.40;;;;;;4998273;28;20149;-69
2022/02/25 08:01:49;;;;;;;0.70;0.60;;;23.00;45.90;;;;;;4998731;28;20069;-64
2022/02/25 08:04:14;;;;;;;1.20;0.77;;;23.00;46.40;;;;;;4998834;28;20169;-66
2022/02/25 08:06:42;;;;;;;1.38;0.55;;;23.00;46.00;;;;;;4998414;28;20069;-63
2022/02/25 08:09:09;;;;;;;1.33;0.60;;;23.00;46.00;;;;;;4996494;28;20398;-67
2022/02/25 08:11:35;;;;;;;2.92;0.60;;;23.00;46.10;;;;;;4999460;28;20018;-68
2022/02/25 08:14:01;;;;;;;1.30;0.50;;;23.10;46.50;;;;;;5013369;28;20513;-67
2022/02/25 08:16:27;;;;;;;1.15;0.57;;;23.10;46.20;;;;;;5000911;28;20026;-66
2022/02/25 08:18:52;;;;;;;0.85;0.47;;;23.10;45.90;;;;;;4998033;28;22103;-68
2022/02/25 08:21:18;;;;;;;2.78;0.60;;;23.10;45.90;;;;;;4998490;28;20026;-70
2022/02/25 08:23:44;;;;;;;2.10;0.80;;;23.10;46.40;;;;;;4995863;28;20023;-68
2022/02/25 08:26:10;;;;;;;0.95;0.60;;;23.20;46.40;;;;;;5013627;28;20098;-68
2022/02/25 08:28:36;;;;;;;1.08;0.60;;;23.20;46.30;;;;;;4998176;28;20027;-65
2022/02/25 08:31:03;;;;;;;0.50;0.50;;;23.20;45.80;;;;;;4998763;28;20045;-68
2022/02/25 08:33:28;;;;;;;2.58;0.63;;;23.20;46.00;;;;;;4998030;28;20600;-65
2022/02/25 08:35:54;;;;;;;0.75;0.60;;;23.20;45.70;;;;;;4998049;28;20034;-66
2022/02/25 08:38:20;;;;;;;1.33;0.55;;;23.20;45.60;;;;;;4994014;28;20037;-66
2022/02/25 08:40:46;;;;;;;1.80;0.50;;;23.20;45.60;;;;;;4997696;28;20045;-65
2022/02/25 08:43:13;;;;;;;0.80;0.55;;;23.20;45.50;;;;;;4996327;28;20459;-67
2022/02/25 08:45:41;;;;;;;0.82;0.60;;;23.20;45.40;;;;;;4997502;28;20041;-64
2022/02/25 08:48:07;;;;;;;0.90;0.50;;;23.20;45.30;;;;;;4997688;28;20479;-67
2022/02/25 08:50:33;;;;;;;1.48;0.73;;;23.20;45.20;;;;;;4998304;28;20374;-66
2022/02/25 08:52:59;;;;;;;1.35;0.60;;;23.30;45.80;;;;;;4995054;28;20034;-68
2022/02/25 08:55:25;;;;;;;1.10;0.60;;;23.30;45.80;;;;;;4997270;28;20131;-68
2022/02/25 08:57:52;;;;;;;0.98;0.60;;;23.40;46.50;;;;;;4997080;28;20168;-67
2022/02/25 09:00:20;;;;;;;1.52;0.77;;;23.40;46.00;;;;;;4996260;28;20194;-69
2022/02/25 09:02:47;;;;;;;1.27;0.60;;;23.40;45.90;;;;;;4996083;28;20019;-67
2022/02/25 09:05:13;;;;;;;0.85;0.50;;;23.50;46.00;;;;;;4996447;28;20141;-68
2022/02/25 09:07:39;;;;;;;1.15;0.60;;;23.40;45.80;;;;;;4997460;28;20034;-66
2022/02/25 09:10:06;;;;;;;0.82;0.55;;;23.50;45.60;;;;;;4995992;28;20420;-68
2022/02/25 09:12:33;;;;;;;1.25;0.68;;;23.50;46.50;;;;;;5011624;28;20025;-70
2022/02/25 09:14:59;;;;;;;2.33;0.75;;;23.50;45.40;;;;;;4999385;28;20037;-68
2022/02/25 09:17:25;;;;;;;0.90;0.60;;;23.50;44.80;;;;;;4999409;28;20498;-68
2022/02/25 09:19:51;;;;;;;1.70;0.80;;;23.50;44.50;;;;;;4997554;28;20026;-69
2022/02/25 09:22:17;;;;;;;1.58;0.60;;;23.50;44.40;;;;;;4997502;28;20025;-70
2022/02/25 09:24:42;;;;;;;2.00;0.80;;;23.50;45.10;;;;;;4994831;28;20446;-69
2022/02/25 09:27:08;;;;;;;1.30;0.65;;;23.50;45.10;;;;;;4995997;28;20031;-69
2022/02/25 09:29:34;;;;;;;1.05;0.70;;;23.50;44.90;;;;;;4997404;28;20080;-69
2022/02/25 09:31:59;;;;;;;1.25;0.75;;;23.50;44.70;;;;;;4997058;28;20089;-69
2022/02/25 09:34:25;;;;;;;1.63;0.80;;;23.50;44.50;;;;;;4996800;28;20169;-66
2022/02/25 09:36:51;;;;;;;1.38;0.70;;;23.50;44.50;;;;;;4997283;28;20753;-67
2022/02/25 09:39:17;;;;;;;1.75;0.70;;;23.50;44.60;;;;;;4993399;28;20116;-68
2022/02/25 09:41:42;;;;;;;0.90;0.50;;;23.50;44.50;;;;;;5010697;28;20149;-67
2022/02/25 09:44:11;;;;;;;1.65;0.77;;;23.50;44.80;;;;;;4996716;28;20125;-68
2022/02/25 09:46:37;;;;;;;1.60;0.80;;;23.50;44.90;;;;;;4997220;28;20072;-69
2022/02/25 09:49:02;;;;;;;1.00;0.70;;;23.50;44.70;;;;;;5010075;28;20066;-67
2022/02/25 09:51:28;;;;;;;1.20;0.60;;;23.50;44.70;;;;;;5011489;28;20037;-67
2022/02/25 09:53:54;;;;;;;1.63;0.68;;;23.50;45.00;;;;;;4994748;28;20045;-69
2022/02/25 09:56:25;;;;;;;1.02;0.60;;;23.50;44.80;;;;;;4998905;28;20034;-64
2022/02/25 09:58:51;;;;;;;1.27;0.65;;;23.50;44.70;;;;;;4996818;28;20095;-65
2022/02/25 10:01:18;;;;;;;0.70;0.60;;;23.50;44.60;;;;;;5011073;28;20761;-67
2022/02/25 10:03:51;;;;;;;1.00;0.70;;;23.50;44.70;;;;;;5000122;28;20022;-66
2022/02/25 10:06:16;;;;;;;0.77;0.68;;;23.50;45.20;;;;;;4996371;28;20032;-68
2022/02/25 10:08:43;;;;;;;1.00;0.70;;;23.50;44.80;;;;;;4996854;28;20541;-66
2022/02/25 10:11:08;;;;;;;1.98;0.73;;;23.60;44.80;;;;;;5010119;28;20033;-68
2022/02/25 10:13:35;;;;;;;0.60;0.50;;;23.50;44.70;;;;;;5011703;28;20376;-66
2022/02/25 10:16:08;;;;;;;1.30;0.60;;;23.50;44.90;;;;;;5001069;28;20044;-68
2022/02/25 10:18:34;;;;;;;1.65;0.70;;;23.50;44.80;;;;;;4995681;28;20077;-67
2022/02/25 10:21:04;;;;;;;1.08;0.60;;;23.60;44.90;;;;;;4993424;28;20041;-65
2022/02/25 10:23:33;;;;;;;1.45;0.75;;;23.50;44.80;;;;;;5005495;28;20029;-66
2022/02/25 10:26:13;;;;;;;1.88;0.90;;;23.50;44.80;;;;;;4994068;28;20026;-67
2022/02/25 10:28:42;;;;;;;1.65;0.80;;;23.50;44.70;;;;;;4996408;28;20049;-65
2022/02/25 10:31:35;;;;;;;0.98;0.60;;;23.50;44.80;;;;;;5010366;28;20487;-69
2022/02/25 10:34:02;;;;;;;1.65;0.75;;;23.60;44.70;;;;;;4998066;28;20029;-65
2022/02/25 10:36:45;;;;;;;1.42;0.68;;;23.60;44.60;;;;;;4996211;28;20022;-66
2022/02/25 10:39:31;;;;;;;1.23;0.60;;;23.60;44.60;;;;;;4993576;28;20398;-66
2022/02/25 10:42:19;;;;;;;0.90;0.50;;;23.60;44.70;;;;;;4993399;28;20030;-67
2022/02/25 10:45:02;;;;;;;1.50;0.80;;;23.60;44.80;;;;;;4998892;28;20030;-67
2022/02/25 10:47:34;;;;;;;1.48;0.73;;;23.70;45.40;;;;;;5002212;28;20044;-65
2022/02/25 10:50:12;;;;;;;1.80;0.70;;;23.70;44.80;;;;;;5014337;28;20046;-68
2022/02/25 10:52:40;;;;;;;1.70;0.70;;;23.70;45.30;;;;;;4999242;28;20421;-69
2022/02/25 10:55:12;;;;;;;1.70;0.70;;;23.70;44.80;;;;;;5000120;28;20358;-69
2022/02/25 10:57:38;;;;;;;1.67;1.00;;;23.70;44.80;;;;;;5000791;28;20473;-67
2022/02/25 11:00:11;;;;;;;1.42;0.65;;;23.70;44.80;;;;;;5013064;28;20038;-65
2022/02/25 11:02:41;;;;;;;2.03;0.80;;;23.70;44.80;;;;;;4999158;28;20139;-69
2022/02/25 11:05:15;;;;;;;1.10;0.80;;;23.70;44.90;;;;;;4999898;28;20081;-65
2022/02/25 11:07:46;;;;;;;0.60;0.50;;;23.70;44.80;;;;;;4998039;28;20051;-67
2022/02/25 11:10:14;;;;;;;1.08;0.70;;;23.70;44.80;;;;;;5012975;28;20045;-68
2022/02/25 11:12:42;;;;;;;1.85;0.77;;;23.70;45.10;;;;;;5002686;28;20038;-67
2022/02/25 11:15:11;;;;;;;1.20;0.70;;;23.70;45.00;;;;;;5002576;28;20030;-68
2022/02/25 11:17:38;;;;;;;2.40;0.77;;;23.70;45.10;;;;;;5001473;28;20036;-68
2022/02/25 11:20:06;;;;;;;2.03;0.80;;;23.70;45.00;;;;;;5001444;28;20041;-67
2022/02/25 11:22:36;;;;;;;1.15;0.68;;;23.80;45.00;;;;;;4998445;28;20037;-67
2022/02/25 11:25:02;;;;;;;0.65;0.60;;;23.80;45.00;;;;;;4998420;28;20194;-67
2022/02/25 11:27:27;;;;;;;2.00;0.90;;;23.80;45.00;;;;;;5004387;28;20131;-67
2022/02/25 11:29:59;;;;;;;1.23;0.70;;;23.80;44.90;;;;;;5001264;28;20113;-68
2022/02/25 11:32:34;;;;;;;0.93;0.60;;;23.80;44.70;;;;;;5001132;28;20095;-67
2022/02/25 11:35:10;;;;;;;1.27;0.70;;;23.80;44.70;;;;;;5005708;28;20056;-68
2022/02/25 11:37:44;;;;;;;1.60;0.90;;;23.80;44.70;;;;;;5003099;28;20045;-67
2022/02/25 11:40:11;;;;;;;1.52;0.70;;;23.80;44.60;;;;;;5015278;28;20076;-62
2022/02/25 11:42:37;;;;;;;2.42;0.90;;;23.80;44.60;;;;;;5002926;28;20030;-67
2022/02/25 11:45:23;;;;;;;1.75;0.90;;;23.80;44.50;;;;;;5001414;28;20029;-67
2022/02/25 11:47:57;;;;;;;1.52;0.75;;;23.80;44.50;;;;;;4997037;28;20041;-69
2022/02/25 11:50:34;;;;;;;1.52;0.80;;;23.80;44.40;;;;;;4999737;28;20118;-63
2022/02/25 11:53:24;;;;;;;3.08;0.60;;;23.90;45.00;;;;;;4992137;28;20038;-69
2022/02/25 11:55:51;;;;;;;1.75;0.80;;;23.90;45.00;;;;;;4997800;28;20064;-69
2022/02/25 11:58:40;;;;;;;1.27;0.65;;;23.90;44.40;;;;;;5013548;28;20041;-64
2022/02/25 12:01:21;;;;;;;1.60;0.80;;;23.90;44.40;;;;;;4996016;28;20037;-66
2022/02/25 12:04:02;;;;;;;1.92;0.80;;;23.90;44.40;;;;;;4999107;28;20281;-68
2022/02/25 12:06:29;;;;;;;1.27;0.70;;;23.90;44.40;;;;;;4999543;28;20525;-68
2022/02/25 12:08:58;;;;;;;2.55;0.80;;;23.90;44.40;;;;;;4995226;28;20038;-65
2022/02/25 12:11:37;;;;;;;1.70;0.80;;;23.90;44.30;;;;;;4999519;28;20141;-68
2022/02/25 12:14:03;;;;;;;1.80;0.80;;;23.90;44.30;;;;;;5012744;28;20056;-68
2022/02/25 12:16:32;;;;;;;3.22;0.85;;;23.90;44.30;;;;;;4999155;28;20422;-66
2022/02/25 12:19:09;;;;;;;1.70;0.90;;;23.90;44.30;;;;;;4998750;28;20080;-68
2022/02/25 12:21:44;;;;;;;2.60;0.80;;;23.90;44.30;;;;;;5012926;28;20030;-65
2022/02/25 12:24:12;;;;;;;1.30;0.70;;;23.90;44.10;;;;;;4996228;28;20542;-67
2022/02/25 12:26:39;;;;;;;1.65;0.73;;;23.90;44.20;;;;;;4999470;28;20051;-69
2022/02/25 12:29:19;;;;;;;0.70;0.50;;;23.90;44.30;;;;;;4997627;28;20022;-68
2022/02/25 12:31:47;;;;;;;1.75;0.80;;;23.90;44.20;;;;;;4998294;28;20034;-69
2022/02/25 12:34:25;;;;;;;1.77;0.80;;;23.90;44.30;;;;;;4997139;28;20056;-68
2022/02/25 12:36:53;;;;;;;1.15;0.65;;;23.90;44.20;;;;;;4999101;28;20515;-64
2022/02/25 12:39:31;;;;;;;1.90;0.70;;;23.90;44.10;;;;;;4995546;28;20394;-68
2022/02/25 12:42:00;;;;;;;1.50;0.70;;;23.90;44.10;;;;;;4998307;28;20113;-70
2022/02/25 12:44:35;;;;;;;1.55;0.75;;;23.90;44.10;;;;;;4997430;28;20408;-69
2022/02/25 12:47:07;;;;;;;2.35;0.80;;;23.90;44.10;;;;;;4996704;28;20030;-69
2022/02/25 12:49:34;;;;;;;0.73;0.60;;;23.90;44.10;;;;;;5011719;28;20129;-64
2022/02/25 12:52:03;;;;;;;1.23;0.73;;;23.90;44.30;;;;;;4997893;28;20191;-67
2022/02/25 12:54:31;;;;;;;1.20;0.70;;;23.90;44.40;;;;;;4993846;28;20037;-68
2022/02/25 12:56:59;;;;;;;1.60;0.68;;;23.90;44.30;;;;;;5013003;28;20034;-67